Latest Weather Observations for Douglas River

IDD60801

Issued at 10:35 am CST Wednesday 22 October 2014 (issued every 30 minutes, with the page automatically refreshed every 10 minutes)

About weather observations | Map of weather stations | Latest weather observations for NT | Other Formats
Station Details ID: 014901 Name: DOUGLAS RIVER Lat: -13.83 Lon: 131.19 Height: 42.8 m
Data from the previous 72 hours. | See also: Recent months at Douglas River
Date/Time
CST
Temp
°C
App
Temp
°C
Dew
Point
Rel
Hum
%
Delta-T
°C
Wind Press
QNH
hPa
Press
MSL
hPa
Rain
since 9 am
mm
Dir
 
Spd
km/h
Gust
km/h
Spd
kts
Gust
kts
22/10:30am 32.4 34.1 18.4 43 9.1 W 7 15 4 8 1015.1 1014.8 0.0
22/10:00am 30.5 33.0 19.9 53 7.0 NW 6 11 3 6 1015.6 1015.3 0.0
22/09:30am 29.9 32.7 20.4 56 6.3 NW 6 11 3 6 1016.0 1015.7 0.0
22/09:00am 29.7 33.1 21.7 62 5.4 E 6 9 3 5 1016.3 1016.0 0.0
22/08:30am 28.5 31.2 22.1 68 4.3 ENE 11 22 6 12 1016.2 1015.9 0.0
22/08:00am 26.3 29.8 21.8 76 3.0 NW 6 7 3 4 1015.1 1014.8 0.0
22/07:30am 24.7 28.9 21.7 83 2.0 W 2 6 1 3 1014.8 1014.5 0.0
22/07:00am 23.1 27.5 21.3 90 1.2 CALM 0 0 0 0 1014.3 1014.0 0.0
22/06:30am 22.7 26.8 20.7 88 1.3 CALM 0 0 0 0 1014.0 1013.7 0.0
22/06:00am 23.6 28.1 21.5 88 1.4 WNW 0 6 0 3 1013.6 1013.3 0.0
22/05:30am 23.9 28.3 21.3 85 1.7 CALM 0 6 0 3 1013.4 1013.1 0.0
22/05:00am 24.2 28.6 21.3 84 1.9 CALM 0 0 0 0 1013.2 1012.9 0.0
22/04:30am 23.7 27.6 21.1 85 1.7 N 2 6 1 3 1012.9 1012.6 0.0
22/04:00am 24.6 29.0 21.4 82 2.1 CALM 0 0 0 0 1013.0 1012.7 0.0
22/03:30am 24.8 29.3 21.5 82 2.2 CALM 0 0 0 0 1012.9 1012.6 0.0
22/03:00am 25.1 29.6 21.5 80 2.4 CALM 0 0 0 0 1012.9 1012.6 0.0
22/02:30am 25.4 29.9 21.5 79 2.6 CALM 0 0 0 0 1012.9 1012.6 0.0
22/02:00am 25.6 30.0 21.4 77 2.8 CALM 0 6 0 3 1012.9 1012.6 0.0
22/01:30am 26.0 30.4 21.3 75 3.1 CALM 0 0 0 0 1013.2 1012.9 0.0
22/01:00am 26.2 29.8 21.2 74 3.3 N 4 9 2 5 1013.5 1013.2 0.0
22/12:30am 26.4 29.6 21.3 73 3.4 N 6 13 3 7 1013.6 1013.3 0.0
22/12:00am 26.3 29.5 21.2 73 3.4 NNW 6 11 3 6 1013.6 1013.3 0.0
 
Date/Time
CST
Temp
°C
App
Temp
°C
Dew
Point
Rel
Hum
%
Delta-T
°C
Wind Press
QNH
hPa
Press
MSL
hPa
Rain
since 9 am
mm
Dir
 
Spd
km/h
Gust
km/h
Spd
kts
Gust
kts
21/11:30pm 26.4 28.9 21.1 72 3.5 NW 9 13 5 7 1013.7 1013.4 0.0
21/11:00pm 26.8 29.3 21.1 71 3.8 NW 9 11 5 6 1013.8 1013.5 0.0
21/10:30pm 26.6 29.3 20.2 68 4.2 NW 6 9 3 5 1013.8 1013.5 0.0
21/10:00pm 26.0 27.9 18.6 63 4.7 SW 6 9 3 5 1013.6 1013.3 0.0
21/09:30pm 26.2 27.6 16.5 55 6.0 WNW 4 9 2 5 1013.2 1012.9 0.0
21/09:00pm 27.1 28.1 14.2 45 7.7 NW 2 9 1 5 1012.5 1012.2 0.0
21/08:30pm 27.0 28.4 14.3 45 7.6 CALM 0 0 0 0 1012.2 1011.9 0.0
21/08:00pm 28.7 29.8 13.4 39 9.1 CALM 0 0 0 0 1011.8 1011.5 0.0
21/07:30pm 30.9 31.7 12.5 32 10.9 CALM 0 0 0 0 1011.6 1011.3 0.0
21/07:00pm 32.4 33.4 13.3 31 11.5 CALM 0 6 0 3 1011.4 1011.1 0.0
21/06:30pm 34.2 31.8 8.8 21 14.4 E 11 13 6 7 1011.0 1010.7 0.0
21/06:00pm 36.0 33.4 9.2 19 15.4 ESE 13 22 7 12 1010.8 1010.5 0.0
21/05:30pm 36.7 34.9 9.4 19 15.8 ESE 9 15 5 8 1010.5 1010.2 0.0
21/05:00pm 36.6 32.5 8.6 18 16.0 ESE 20 30 11 16 1010.2 1009.9 0.0
21/04:30pm 36.7 32.8 8.8 18 16.0 SE 19 26 10 14 1010.3 1010.0 0.0
21/04:00pm 36.5 33.7 9.9 20 15.5 ESE 15 20 8 11 1010.4 1010.1 0.0
21/03:30pm 36.9 34.3 9.2 18 16.0 ESE 13 20 7 11 1010.5 1010.2 0.0
21/03:00pm 37.2 33.2 8.9 18 16.3 SE 20 32 11 17 1010.8 1010.5 0.0
21/02:30pm 36.3 33.0 9.5 19 15.5 ESE 17 22 9 12 1011.1 1010.8 0.0
21/02:00pm 36.9 34.8 9.8 19 15.8 SSE 11 20 6 11 1011.8 1011.5 0.0
21/01:30pm 34.9 34.7 13.6 27 13.0 E 7 15 4 8 1012.5 1012.2 0.0
21/01:00pm 35.8 35.4 13.1 25 13.8 NE 7 13 4 7 1013.1 1012.8 0.0
21/12:30pm 35.1 35.0 13.9 28 13.0 WNW 7 13 4 7 1014.0 1013.7 0.0
21/12:00pm 34.7 34.0 14.2 29 12.6 E 11 22 6 12 1014.6 1014.3 0.0
21/11:30am 33.4 32.5 13.6 30 12.0 NE 11 24 6 13 1015.2 1014.9 0.0
21/11:00am 33.7 33.1 14.5 31 11.8 E 11 20 6 11 1015.6 1015.3 0.0
21/10:30am 32.4 34.6 19.3 46 8.6 S 6 11 3 6 1016.0 1015.7 0.0
21/10:00am 30.7 33.4 20.7 55 6.7 E 7 13 4 7 1016.4 1016.1 0.0
21/09:30am 30.3 33.6 21.4 59 6.0 ENE 6 11 3 6 1016.6 1016.3 0.0
21/09:00am 28.7 32.2 21.9 66 4.6 NNW 6 9 3 5 1016.7 1016.4 0.0
21/08:30am 28.1 32.3 21.8 68 4.2 N 2 7 1 4 1016.4 1016.1 0.0
21/08:00am 27.2 30.8 22.0 73 3.5 NE 6 9 3 5 1016.4 1016.1 0.0
21/07:30am 24.7 28.6 21.8 84 1.9 ESE 4 6 2 3 1016.1 1015.8 0.0
21/07:00am 23.0 26.0 21.2 89 1.2 ESE 7 11 4 6 1015.9 1015.6 0.0
21/06:30am 22.6 26.4 20.9 90 1.1 WSW 2 6 1 3 1014.6 1014.3 0.0
21/06:00am 22.1 25.9 20.1 88 1.3 CALM 0 0 0 0 1014.3 1014.0 0.0
21/05:30am 23.0 27.2 21.0 88 1.3 CALM 0 0 0 0 1014.0 1013.7 0.0
21/05:00am 24.1 28.3 20.9 82 2.1 CALM 0 0 0 0 1013.6 1013.3 0.0
21/04:30am 25.0 29.2 20.9 78 2.7 CALM 0 4 0 2 1013.2 1012.9 0.0
21/04:00am 25.2 29.2 21.3 79 2.6 N 2 7 1 4 1013.0 1012.7 0.0
21/03:30am 25.4 30.0 22.4 83 2.0 NNW 2 7 1 4 1013.1 1012.8 0.0
21/03:00am 25.8 31.0 22.8 83 2.0 CALM 0 0 0 0 1013.4 1013.1 0.0
21/02:30am 26.1 31.3 22.9 82 2.2 CALM 0 0 0 0 1013.5 1013.2 0.0
21/02:00am 25.7 30.9 22.9 84 1.9 CALM 0 0 0 0 1013.8 1013.5 0.0
21/01:30am 26.2 31.5 23.0 82 2.2 CALM 0 0 0 0 1013.5 1013.2 0.0
21/01:00am 26.3 31.6 23.1 82 2.2 CALM 0 6 0 3 1013.6 1013.3 0.0
21/12:30am 26.3 31.6 23.1 82 2.2 CALM 0 4 0 2 1013.9 1013.6 0.0
21/12:00am 26.9 31.5 23.1 80 2.6 NNW 4 9 2 5 1014.0 1013.7 0.0
 
Date/Time
CST
Temp
°C
App
Temp
°C
Dew
Point
Rel
Hum
%
Delta-T
°C
Wind Press
QNH
hPa
Press
MSL
hPa
Rain
since 9 am
mm
Dir
 
Spd
km/h
Gust
km/h
Spd
kts
Gust
kts
20/11:30pm 27.1 32.0 23.0 78 2.8 N 2 11 1 6 1013.7 1013.4 0.0
20/11:00pm 27.3 31.8 23.0 77 2.9 N 4 9 2 5 1013.6 1013.3 0.0
20/10:30pm 27.6 31.1 22.9 75 3.2 NNW 9 20 5 11 1013.4 1013.1 0.0
20/10:00pm 27.9 31.4 22.9 74 3.4 NW 9 17 5 9 1013.0 1012.7 0.0
20/09:30pm 28.3 31.3 22.7 71 3.8 NW 11 19 6 10 1012.5 1012.2 0.0
20/09:00pm 28.7 30.5 21.2 64 5.0 NW 13 26 7 14 1012.1 1011.8 0.0
20/08:30pm 28.4 27.9 10.9 33 10.0 E 4 7 2 4 1011.1 1010.8 0.0
20/08:00pm 29.1 29.5 12.4 35 9.8 E 2 6 1 3 1010.6 1010.3 0.0
20/07:30pm 31.7 29.1 6.2 20 13.7 ESE 9 11 5 6 1010.3 1010.0 0.0
20/07:00pm 33.0 30.4 5.9 18 14.6 SE 9 11 5 6 1009.9 1009.6 0.0
20/06:30pm 34.3 31.7 5.9 17 15.4 SE 9 17 5 9 1009.5 1009.2 0.0
20/06:00pm 35.9 32.1 5.6 15 16.5 SE 15 22 8 12 1009.0 1008.7 0.0
20/05:30pm 37.3 31.9 2.5 11 18.2 SE 20 30 11 16 1008.8 1008.5 0.0
20/05:00pm 37.7 32.2 1.8 10 18.6 ESE 20 26 11 14 1008.9 1008.6 0.0
20/04:30pm 38.0 34.6 3.8 12 18.3 SE 11 22 6 12 1008.8 1008.5 0.0
20/04:00pm 38.0 32.9 4.2 12 18.2 SE 20 28 11 15 1009.0 1008.7 0.0
20/03:30pm 38.1 34.5 5.2 13 18.0 SSE 13 24 7 13 1009.3 1009.0 0.0
20/03:00pm 36.9 33.4 7.0 16 16.7 ESE 15 28 8 15 1009.6 1009.3 0.0
20/02:30pm 36.6 34.4 10.9 21 15.2 ESE 13 32 7 17 1010.1 1009.8 0.0
20/02:00pm 37.1 34.3 11.5 21 15.3 ESE 17 30 9 16 1010.8 1010.5 0.0
20/01:30pm 37.3 34.2 11.6 21 15.4 ESE 19 28 10 15 1011.4 1011.1 0.0
20/01:00pm 36.5 34.1 13.8 25 14.0 SSE 19 28 10 15 1012.1 1011.8 0.0
20/12:30pm 35.1 32.8 13.0 26 13.4 SE 17 32 9 17 1013.0 1012.7 0.0
20/12:00pm 35.0 32.9 12.3 25 13.6 E 15 22 8 12 1013.5 1013.2 0.0
20/11:30am 35.3 31.2 11.5 23 14.1 SE 24 33 13 18 1014.0 1013.7 0.0
20/11:00am 36.0 33.8 12.2 23 14.3 SE 15 24 8 13 1014.5 1014.2 0.0
20/10:30am 33.7 31.8 14.3 31 11.9 ESE 17 28 9 15 1015.1 1014.8 0.0
20/10:00am 31.2 33.7 19.8 50 7.5 SW 6 9 3 5 1015.4 1015.1 0.0
20/09:30am 31.5 34.5 20.9 53 7.1 SW 6 9 3 5 1015.6 1015.3 0.0
20/09:00am 29.6 32.4 20.9 59 5.8 ESE 7 15 4 8 1015.6 1015.3 0.0
20/08:30am 28.8 33.1 22.0 66 4.6 W 2 7 1 4 1015.6 1015.3 0.0
20/08:00am 27.7 31.9 22.5 73 3.5 WNW 4 7 2 4 1015.1 1014.8 0.0
20/07:30am 25.8 31.0 22.8 83 2.0 CALM 0 0 0 0 1014.9 1014.6 0.0
20/07:00am 23.9 28.6 21.9 88 1.3 CALM 0 0 0 0 1014.3 1014.0 0.0
20/06:30am 23.1 27.6 21.6 91 1.0 CALM 0 0 0 0 1014.0 1013.7 0.0
20/06:00am 23.7 28.4 21.9 90 1.2 CALM 0 0 0 0 1013.7 1013.4 0.0
20/05:30am 24.1 28.7 21.8 87 1.5 CALM 0 0 0 0 1013.8 1013.5 0.0
20/05:00am 24.8 29.7 22.3 86 1.7 CALM 0 0 0 0 1013.5 1013.2 0.0
20/04:30am 25.0 29.9 22.3 85 1.8 CALM 0 0 0 0 1013.2 1012.9 0.0
20/04:00am 25.5 30.5 22.5 83 2.0 CALM 0 0 0 0 1013.0 1012.7 0.0
20/03:30am 26.2 31.3 22.7 81 2.4 CALM 0 0 0 0 1013.0 1012.7 0.0
20/03:00am 27.0 32.1 22.7 77 2.9 CALM 0 6 0 3 1013.0 1012.7 0.0
20/02:30am 26.2 31.1 22.3 79 2.6 CALM 0 0 0 0 1013.2 1012.9 0.0
20/02:00am 26.2 31.2 22.5 80 2.5 CALM 0 0 0 0 1013.2 1012.9 0.0
20/01:30am 26.4 31.5 22.6 79 2.6 CALM 0 0 0 0 1013.5 1013.2 0.0
20/01:00am 26.3 31.2 22.4 79 2.6 CALM 0 0 0 0 1013.5 1013.2 0.0
20/12:30am 26.6 31.5 22.3 77 2.9 CALM 0 0 0 0 1013.7 1013.4 0.0
20/12:00am 26.7 31.5 22.2 76 3.0 CALM 0 6 0 3 1013.5 1013.2 0.0
 
Date/Time
CST
Temp
°C
App
Temp
°C
Dew
Point
Rel
Hum
%
Delta-T
°C
Wind Press
QNH
hPa
Press
MSL
hPa
Rain
since 9 am
mm
Dir
 
Spd
km/h
Gust
km/h
Spd
kts
Gust
kts
19/11:30pm 26.9 31.7 22.1 75 3.2 CALM 0 6 0 3 1013.8 1013.5 0.0
19/11:00pm 27.2 32.0 22.1 73 3.4 CALM 0 6 0 3 1013.8 1013.5 0.0
19/10:30pm 27.8 31.2 22.0 70 3.9 NW 7 13 4 7 1013.2 1012.9 0.0
19/10:00pm 28.1 31.4 21.9 69 4.2 NW 7 15 4 8 1013.0 1012.7 0.0
19/09:30pm 28.4 31.7 21.9 68 4.4 NW 7 17 4 9 1012.8 1012.5 0.0
19/09:00pm 28.8 31.3 21.8 66 4.7 WNW 11 19 6 10 1011.8 1011.5 0.0
19/08:30pm 29.3 31.1 21.2 61 5.4 WNW 13 20 7 11 1011.3 1011.0 0.0
19/08:00pm 29.7 29.3 9.6 28 11.3 S 2 11 1 6 1010.6 1010.3 0.0
19/07:30pm 31.5 31.0 10.7 27 12.0 SSE 4 6 2 3 1010.1 1009.8 0.0
19/07:00pm 32.8 31.2 8.6 22 13.6 SSE 7 9 4 5 1009.5 1009.2 0.0
19/06:30pm 34.5 31.6 6.3 17 15.4 SE 11 15 6 8 1009.1 1008.8 0.0
19/06:00pm 37.2 34.0 4.9 13 17.5 ESE 11 17 6 9 1008.8 1008.5 0.0
19/05:30pm 38.2 34.2 2.7 11 18.7 E 13 22 7 12 1008.6 1008.3 0.0
19/05:00pm 38.4 36.9 6.6 14 17.8 NE 4 13 2 7 1008.3 1008.0 0.0
19/04:30pm 38.6 33.3 3.0 11 18.9 E 20 33 11 18 1008.3 1008.0 0.0
19/04:00pm 39.0 34.5 4.4 12 18.8 SE 17 30 9 16 1008.5 1008.2 0.0
19/03:30pm 39.0 35.0 4.7 12 18.7 ESE 15 20 8 11 1008.8 1008.5 0.0
19/03:00pm 38.6 35.6 7.7 15 17.6 E 13 30 7 16 1009.0 1008.7 0.0
19/02:30pm 39.2 35.9 4.8 12 18.8 ESE 11 24 6 13 1009.3 1009.0 0.0
19/02:00pm 39.1 35.2 5.3 12 18.6 E 15 30 8 16 1009.7 1009.4 0.0
19/01:30pm 38.2 34.9 6.5 14 17.7 ENE 13 20 7 11 1010.4 1010.1 0.0
19/01:00pm 37.9 31.7 1.9 10 18.7 E 24 39 13 21 1011.2 1010.9 0.0
19/12:30pm 38.0 32.4 3.4 11 18.4 E 22 43 12 23 1011.7 1011.4 0.0
19/12:00pm 36.6 33.6 10.6 20 15.3 E 17 28 9 15 1012.4 1012.1 0.0
19/11:30am 36.7 34.8 11.8 22 14.9 E 13 20 7 11 1013.0 1012.7 0.0
19/11:00am 35.1 34.8 14.4 29 12.8 NE 9 19 5 10 1013.6 1013.3 0.0

Other Formats:

Comma delimited format used in spreadsheet applications
http://www.bom.gov.au/fwo/IDD60801/IDD60801.94128.axf

JavaScript Object Notation format (JSON) in row-major order
http://www.bom.gov.au/fwo/IDD60801/IDD60801.94128.json